Latest Weather Observations for Mangrove Mountain

IDN60901

Issued at 11:41 pm EDT Saturday 10 December 2016 (issued every 10 minutes, with the page automatically refreshed every 10 minutes)

About weather observations | Map of Sydney area stations | Latest observations for Sydney area | Other Formats
Station Details ID: 061375 Name: MANGROVE MOUNTAIN AWS Lat: -33.29 Lon: 151.21 Height: 305.0 m
Data from the previous 72 hours. | See also: Recent months at Mangrove Mountain
Date/Time
EDT
Temp
°C
App
Temp
°C
Dew
Point
°C
Rel
Hum
%
Delta-T
°C
Wind Press
QNH
hPa
Press
MSL
hPa
Rain since
9am
mm
Dir  Spd
km/h
Gust
km/h
Spd
kts
Gust
kts
10/11:30pm 14.8 15.0 13.0 89 1.0 S 4 7 2 4 - - 0.0
10/11:00pm 15.7 15.9 13.2 85 1.4 ESE 4 7 2 4 - - 0.0
10/10:30pm 16.2 16.1 13.3 83 1.6 E 6 13 3 7 - - 0.0
10/10:00pm 16.4 16.1 13.3 82 1.8 E 7 15 4 8 - - 0.0
10/09:30pm 16.7 16.4 13.4 81 1.9 ENE 7 20 4 11 - - 0.0
10/09:00pm 16.8 15.8 13.3 80 2.0 ENE 11 19 6 10 - - 0.0
10/08:30pm 17.0 15.2 13.3 79 2.1 ENE 15 28 8 15 - - 0.0
10/08:00pm 17.3 15.5 13.4 78 2.2 ENE 15 24 8 13 - - 0.0
10/07:30pm 17.9 15.3 13.2 74 2.7 ENE 19 32 10 17 - - 0.0
10/07:00pm 18.7 16.3 12.7 68 3.4 ENE 17 33 9 18 - - 0.0
10/06:30pm 19.5 16.5 12.5 64 4.0 ENE 20 33 11 18 - - 0.0
10/06:00pm 20.4 17.7 12.9 62 4.3 ENE 19 32 10 17 - - 0.0
10/05:30pm 21.1 18.3 13.3 61 4.5 ENE 20 33 11 18 - - 0.0
10/05:00pm 21.1 17.8 12.8 59 4.8 E 22 32 12 17 - - 0.0
10/04:30pm 21.4 19.1 13.1 59 4.8 ENE 17 30 9 16 - - 0.0
10/04:00pm 21.6 19.0 13.2 59 4.9 E 19 32 10 17 - - 0.0
10/03:30pm 21.9 19.1 12.7 56 5.3 E 19 28 10 15 - - 0.0
10/03:00pm 22.9 20.7 13.4 55 5.6 E 17 24 9 13 - - 0.0
10/02:30pm 23.7 22.3 13.3 52 6.1 E 13 22 7 12 - - 0.0
10/02:00pm 23.4 21.6 13.3 53 5.9 E 15 24 8 13 - - 0.0
10/01:30pm 22.5 21.4 13.0 55 5.5 ENE 11 20 6 11 - - 0.0
10/01:00pm 22.8 21.3 13.0 54 5.7 ENE 13 24 7 13 - - 0.0
10/12:30pm 22.3 21.0 12.5 53 5.6 ENE 11 20 6 11 - - 0.0
10/12:00pm 21.9 20.3 12.7 56 5.3 E 13 19 7 10 - - 0.0
10/11:30am 21.8 20.8 13.4 59 4.9 ENE 11 19 6 10 - - 0.0
10/11:00am 21.8 20.8 13.4 59 4.9 E 11 22 6 12 - - 0.0
10/10:30am 20.8 20.6 13.5 63 4.2 ENE 7 17 4 9 - - 0.0
10/10:00am 20.0 19.1 12.5 62 4.3 NE 9 17 5 9 - - 0.0
10/09:30am 18.7 18.2 12.5 67 3.5 NE 7 11 4 6 - - 0.0
10/09:00am 18.8 17.9 12.5 67 3.6 E 9 19 5 10 - - -
10/08:30am 19.0 17.9 13.2 69 3.3 ENE 11 19 6 10 - - -
10/08:00am 17.6 17.1 12.7 73 2.8 NNE 7 11 4 6 - - -
10/07:30am 16.9 16.8 13.2 79 2.1 NE 6 11 3 6 - - -
10/07:00am 14.7 15.8 13.4 92 0.7 CALM 0 0 0 0 - - -
10/06:30am 13.4 14.3 12.8 96 0.3 CALM 0 0 0 0 - - -
10/06:00am 12.8 13.4 12.0 95 0.4 CALM 0 0 0 0 - - -
10/05:30am 12.6 13.3 12.1 97 0.3 CALM 0 0 0 0 - - -
10/05:00am 11.9 12.2 11.0 94 0.5 CALM 0 0 0 0 - - -
10/04:30am 11.9 12.2 10.8 93 0.6 CALM 0 0 0 0 - - -
10/04:00am 12.3 12.6 10.9 91 0.7 CALM 0 0 0 0 - - -
10/03:30am 12.8 13.2 11.4 91 0.8 CALM 0 0 0 0 - - -
10/03:00am 12.8 13.2 11.4 91 0.8 CALM 0 0 0 0 - - 0.0
10/02:30am 13.0 13.4 11.2 89 1.0 CALM 0 0 0 0 - - -
10/02:00am 14.1 14.9 12.5 90 0.9 CALM 0 0 0 0 - - -
10/01:30am 13.5 14.0 11.7 89 1.0 CALM 0 0 0 0 - - -
10/01:00am 13.8 14.3 11.5 86 1.2 CALM 0 0 0 0 - - -
10/12:30am 14.5 14.7 11.7 83 1.5 SE 2 6 1 3 - - -
10/12:00am 15.2 15.0 11.8 80 1.9 SE 4 7 2 4 - - -
 
Date/Time
EDT
Temp
°C
App
Temp
°C
Dew
Point
°C
Rel
Hum
%
Delta-T
°C
Wind Press
QNH
hPa
Press
MSL
hPa
Rain since
9am
mm
Dir  Spd
km/h
Gust
km/h
Spd
kts
Gust
kts
09/11:30pm 15.0 15.1 11.6 80 1.9 SSE 2 2 1 1 - - -
09/11:00pm 15.4 15.7 12.2 81 1.8 ESE 2 6 1 3 - - -
09/10:30pm 14.9 15.1 11.9 82 1.6 SE 2 6 1 3 - - -
09/10:00pm 15.2 15.1 12.0 81 1.8 ESE 4 7 2 4 - - -
09/09:30pm 15.3 15.1 11.9 80 1.9 ESE 4 4 2 2 - - -
09/09:00pm 15.9 15.4 12.1 78 2.1 ESE 6 9 3 5 - - -
09/08:30pm 16.5 16.1 12.5 77 2.2 SE 6 11 3 6 - - -
09/08:00pm 17.1 16.4 12.0 72 2.8 ESE 7 13 4 7 - - -
09/07:30pm 18.1 16.6 11.9 67 3.5 ESE 11 19 6 10 - - -
09/07:00pm 20.1 18.7 12.3 61 4.4 SE 11 22 6 12 - - -
09/06:00pm 22.4 20.0 9.9 45 6.9 S 13 28 7 15 - - 0.0
09/05:30pm 25.1 21.4 2.5 23 11.1 W 11 20 6 11 - - 0.0
09/05:00pm 25.1 21.1 3.1 24 10.9 W 13 24 7 13 - - 0.0
09/04:30pm 25.1 20.3 2.5 23 11.1 W 17 30 9 16 - - 0.0
09/04:00pm 25.4 21.3 4.5 26 10.6 W 15 33 8 18 - - 0.0
09/03:30pm 24.9 20.8 4.1 26 10.5 WSW 15 28 8 15 - - 0.0
09/03:00pm 24.2 19.2 3.5 26 10.3 W 19 30 10 16 - - 0.0
09/02:30pm 24.4 19.6 4.7 28 10.0 WNW 19 28 10 15 - - 0.0
09/02:00pm 23.9 19.0 4.3 28 9.8 WNW 19 37 10 20 - - 0.0
09/01:30pm 23.4 19.0 4.9 30 9.4 W 17 28 9 15 - - 0.0
09/01:00pm 23.1 18.7 4.6 30 9.3 WNW 17 28 9 15 - - 0.0
09/12:30pm 23.2 19.5 6.1 33 8.8 WSW 15 28 8 15 - - 0.0
09/12:00pm 22.4 18.5 5.4 33 8.6 W 15 32 8 17 - - 0.0
09/11:30am 21.7 16.3 4.3 32 8.6 W 22 41 12 22 - - 0.0
09/11:00am 21.3 16.7 5.6 36 7.9 W 19 35 10 19 - - 0.0
09/10:30am 20.8 17.0 5.6 37 7.7 WSW 15 32 8 17 - - 0.0
09/10:00am 20.0 14.9 6.0 40 7.1 W 22 41 12 22 - - 0.0
09/09:30am 19.3 14.9 6.4 43 6.5 W 19 35 10 19 - - 0.0
09/09:00am 18.4 13.2 5.3 42 6.5 WNW 22 35 12 19 - - 0.0
09/08:30am 17.9 13.0 5.2 43 6.2 W 20 43 11 23 - - 0.0
09/08:00am 17.4 13.5 5.4 45 5.9 W 15 28 8 15 - - 0.0
09/07:30am 16.9 13.0 5.5 47 5.6 W 15 24 8 13 - - 0.0
09/07:00am 16.2 12.0 5.5 49 5.2 W 17 32 9 17 - - 0.0
09/06:30am 15.8 11.7 6.0 52 4.8 W 17 28 9 15 - - 0.0
09/06:00am 15.4 12.1 6.4 55 4.4 W 13 26 7 14 - - 0.0
09/05:30am 15.6 12.0 6.6 55 4.5 W 15 26 8 14 - - 0.0
09/05:00am 16.0 12.0 6.7 54 4.6 W 17 26 9 14 - - 0.0
09/04:30am 16.4 13.1 6.5 52 4.9 W 13 22 7 12 - - 0.0
09/04:00am 17.1 13.4 6.3 49 5.4 W 15 30 8 16 - - 0.0
09/03:30am 17.8 14.6 6.7 48 5.6 W 13 20 7 11 - - 0.0
09/03:00am 19.0 14.4 6.5 44 6.3 W 20 37 11 20 - - 0.0
09/02:30am 20.2 16.3 8.8 48 6.1 W 19 33 10 18 - - 0.0
09/02:00am 21.8 20.3 14.2 62 4.5 W 15 30 8 16 - - 0.0
09/01:30am 22.5 20.8 14.6 61 4.7 W 17 30 9 16 - - 0.0
09/01:00am 23.1 21.0 14.7 59 5.0 WNW 19 28 10 15 - - 0.0
09/12:30am 23.2 22.7 15.0 60 4.9 W 11 26 6 14 - - 0.0
09/12:00am 22.9 23.5 15.2 62 4.7 W 6 11 3 6 - - 0.0
 
Date/Time
EDT
Temp
°C
App
Temp
°C
Dew
Point
°C
Rel
Hum
%
Delta-T
°C
Wind Press
QNH
hPa
Press
MSL
hPa
Rain since
9am
mm
Dir  Spd
km/h
Gust
km/h
Spd
kts
Gust
kts
08/11:30pm 23.1 23.8 15.7 63 4.5 W 6 15 3 8 - - 0.0
08/11:00pm 22.8 23.5 15.6 64 4.4 W 6 7 3 4 - - 0.0
08/10:30pm 24.5 24.5 16.2 60 5.1 WSW 11 28 6 15 - - 0.0
08/10:00pm 25.4 25.1 17.3 61 5.1 WSW 15 28 8 15 - - 0.0
08/09:30pm 26.8 29.1 19.4 64 4.8 N 6 13 3 7 - - 0.0
08/09:00pm 26.2 28.7 20.3 70 3.9 NNE 7 9 4 5 - - 0.0
08/08:30pm 26.3 29.1 20.8 71 3.7 NE 7 11 4 6 - - 0.0
08/08:00pm 26.4 29.4 21.2 73 3.5 NE 7 11 4 6 - - 0.0
08/07:30pm 27.2 30.2 21.2 69 4.0 NE 7 11 4 6 - - 0.0
08/07:00pm 27.3 30.0 21.3 69 4.0 NE 9 15 5 8 - - 0.0
08/06:30pm 27.5 29.8 21.3 69 4.2 ENE 11 19 6 10 - - 0.0
08/06:00pm 28.3 30.2 21.3 65 4.7 ENE 13 22 7 12 - - 0.0
08/05:30pm 27.8 29.1 20.9 66 4.6 ENE 15 26 8 14 - - 0.0
08/05:00pm 28.8 29.3 20.0 59 5.8 ENE 17 32 9 17 - - 0.0
08/04:30pm 33.2 33.4 15.7 35 11.1 NW 9 17 5 9 - - 0.0
08/04:00pm 33.1 33.4 16.9 38 10.4 NNW 11 17 6 9 - - 0.0
08/03:30pm 31.7 31.5 16.8 40 9.5 N 13 22 7 12 - - 0.0
08/03:00pm 32.0 31.3 16.3 39 10.0 NNW 15 24 8 13 - - 0.0
08/02:30pm 31.8 31.3 17.7 43 9.1 NNW 17 35 9 19 - - 0.0
08/02:00pm 31.1 31.1 18.1 46 8.4 NNW 15 24 8 13 - - 0.0
08/01:30pm 29.6 29.9 17.8 49 7.6 N 13 22 7 12 - - 0.0
08/01:00pm 30.6 31.2 18.7 49 7.8 N 13 28 7 15 - - 0.0
08/12:30pm 29.5 30.5 18.6 52 7.1 N 11 26 6 14 - - 0.0
08/12:00pm 28.5 29.2 18.9 56 6.3 NNW 13 20 7 11 - - 0.0
08/11:30am 27.7 28.0 18.7 58 5.8 NNW 15 22 8 12 - - 0.0
08/11:00am 26.6 28.0 18.7 62 5.1 NNW 9 15 5 8 - - 0.0
08/10:30am 25.9 27.7 18.8 65 4.6 NNW 7 17 4 9 - - 0.0
08/10:00am 24.5 26.6 18.9 71 3.6 NW 6 9 3 5 - - 0.0
08/09:30am 22.5 24.1 17.8 75 3.0 NW 6 11 3 6 - - 0.0
08/09:00am 21.5 23.1 17.9 80 2.3 NW 6 11 3 6 - - 0.0
08/08:30am 19.4 21.0 16.8 85 1.6 NNW 4 7 2 4 - - 0.0
08/08:00am 18.2 19.6 16.5 90 1.0 W 4 7 2 4 - - 0.0
08/07:30am 17.4 18.8 16.3 93 0.7 NNW 4 6 2 3 - - 0.0
08/07:00am 17.1 18.3 16.0 93 0.7 NW 4 7 2 4 - - 0.0
08/06:30am 16.9 18.1 15.9 94 0.6 NNW 4 7 2 4 - - 0.0
08/06:00am 17.1 18.4 16.1 94 0.6 WNW 4 6 2 3 - - 0.0
08/05:30am 17.0 18.6 16.0 94 0.6 N 2 6 1 3 - - 0.0
08/05:00am 17.2 18.9 16.2 94 0.6 NNE 2 2 1 1 - - 0.0
08/04:30am 17.2 18.5 16.2 94 0.6 NE 4 6 2 3 - - 0.0
08/04:00am 17.3 19.5 16.5 95 0.5 CALM 0 2 0 1 - - 0.0
08/03:30am 17.2 18.5 16.2 94 0.6 NNE 4 9 2 5 - - 0.0
08/03:00am 17.3 18.3 16.3 94 0.6 NE 6 11 3 6 - - 0.0
08/02:30am 17.6 19.1 16.6 94 0.6 NE 4 7 2 4 - - 0.0
08/02:00am 17.5 18.3 16.4 93 0.7 NNE 7 13 4 7 - - 0.0
08/01:30am 17.6 18.5 16.6 94 0.6 NNE 7 15 4 8 - - 0.0
08/01:00am 17.5 18.0 16.5 94 0.6 NNE 9 13 5 7 - - 0.0
08/12:30am 17.4 17.1 16.4 94 0.6 NE 13 20 7 11 - - 0.0
08/12:00am 17.5 17.9 16.4 93 0.7 NE 9 17 5 9 - - 0.0

Latest Capital City Observations: Canberra | Sydney | Melbourne | Brisbane | Adelaide | Perth | Hobart | Darwin

Other Formats:

Comma delimited format used in spreadsheet applications
http://www.bom.gov.au/fwo/IDN60901/IDN60901.95774.axf

JavaScript Object Notation format (JSON) in row-major order
http://www.bom.gov.au/fwo/IDN60901/IDN60901.95774.json